createdAt,value
2023-03-22T00:02:59.813Z,16.43
2023-03-22T00:06:01.868Z,15.15
2023-03-22T00:09:03.911Z,14.68
2023-03-22T00:12:06.073Z,13.37
2023-03-22T00:15:08.376Z,13.98
2023-03-22T00:18:12.628Z,14.20
2023-03-22T00:21:15.867Z,14.70
2023-03-22T00:24:17.854Z,15.45
2023-03-22T00:27:19.887Z,15.45
2023-03-22T00:30:21.960Z,15.18
2023-03-22T00:33:24.226Z,15.47
2023-03-22T00:36:26.231Z,16.27
2023-03-22T00:39:28.263Z,16.27
2023-03-22T00:42:30.495Z,15.60
2023-03-22T00:45:32.475Z,15.77
2023-03-22T00:48:34.716Z,16.63
2023-03-22T00:51:36.801Z,15.13
2023-03-22T00:54:38.843Z,16.13
2023-03-22T00:57:40.910Z,15.30
2023-03-22T01:00:44.496Z,15.27
2023-03-22T01:03:49.929Z,16.57
2023-03-22T01:06:59.352Z,16.05
2023-03-22T01:10:01.375Z,15.35
2023-03-22T01:13:03.730Z,16.37
2023-03-22T01:16:06.583Z,15.35
2023-03-22T01:19:09.231Z,14.95
2023-03-22T01:22:11.740Z,15.35
2023-03-22T01:25:14.266Z,14.82
2023-03-22T01:28:16.491Z,15.88
2023-03-22T01:31:18.581Z,16.83
2023-03-22T01:34:20.650Z,15.87
2023-03-22T01:37:25.499Z,15.52
2023-03-22T01:40:28.219Z,15.57
2023-03-22T01:43:30.328Z,14.50
2023-03-22T01:46:33.656Z,15.93
2023-03-22T01:49:36.232Z,16.60
2023-03-22T01:52:38.779Z,17.75
2023-03-22T01:55:55.246Z,17.30
2023-03-22T01:59:03.231Z,19.48
2023-03-22T02:02:20.399Z,18.00
2023-03-22T02:05:31.878Z,16.90
2023-03-22T02:08:35.868Z,15.82
2023-03-22T02:11:48.928Z,17.25
2023-03-22T02:15:22.327Z,16.83
2023-03-22T02:18:32.609Z,15.75
2023-03-22T02:21:58.120Z,15.25
2023-03-22T02:25:19.020Z,16.85
2023-03-22T02:28:39.720Z,16.40
2023-03-22T02:32:01.244Z,16.92
2023-03-22T02:35:22.146Z,16.13
2023-03-22T02:38:42.970Z,15.57
2023-03-22T02:41:45.051Z,16.65
2023-03-22T02:45:08.555Z,16.15
2023-03-22T02:48:11.090Z,12.90
2023-03-22T02:51:13.207Z,14.32
2023-03-22T02:54:35.656Z,18.27
2023-03-22T02:57:43.755Z,18.75
2023-03-22T03:00:47.098Z,21.10
2023-03-22T03:03:50.451Z,19.23
2023-03-22T03:06:54.372Z,16.55
2023-03-22T03:09:56.659Z,18.20
2023-03-22T03:12:58.868Z,17.60
2023-03-22T03:16:01.528Z,16.63
2023-03-22T03:19:09.172Z,13.00
2023-03-22T03:22:11.112Z,13.15
2023-03-22T03:25:18.354Z,14.57
2023-03-22T03:28:38.256Z,14.55
2023-03-22T03:31:43.515Z,14.07
2023-03-22T03:35:06.171Z,13.82
2023-03-22T03:38:20.556Z,14.52
2023-03-22T03:41:24.775Z,13.97
2023-03-22T03:44:26.919Z,12.35
2023-03-22T03:47:29.441Z,14.15
2023-03-22T03:50:31.693Z,14.23
2023-03-22T03:53:33.764Z,12.73
2023-03-22T03:56:35.835Z,13.80
2023-03-22T03:59:37.876Z,13.93
2023-03-22T04:02:48.030Z,13.35
2023-03-22T04:06:12.753Z,14.52
2023-03-22T04:09:19.481Z,15.07
2023-03-22T04:12:26.268Z,14.10
2023-03-22T04:15:45.581Z,14.80
2023-03-22T04:18:50.012Z,13.75
2023-03-22T04:21:53.270Z,14.50
2023-03-22T04:24:55.998Z,13.05
2023-03-22T04:28:00.708Z,15.77
2023-03-22T04:31:05.212Z,13.88
2023-03-22T04:34:24.161Z,14.27
2023-03-22T04:37:31.758Z,15.30
2023-03-22T04:40:46.879Z,14.43
2023-03-22T04:43:57.698Z,14.43
2023-03-22T04:47:00.112Z,13.82
2023-03-22T04:50:02.491Z,13.95
2023-03-22T04:53:09.954Z,15.60
2023-03-22T04:56:12.836Z,14.63
2023-03-22T04:59:20.229Z,14.52
2023-03-22T05:02:23.842Z,15.35
2023-03-22T05:05:26.112Z,14.40
2023-03-22T05:08:30.011Z,14.90
2023-03-22T05:11:32.099Z,15.15
2023-03-22T05:14:48.082Z,13.60
2023-03-22T05:17:55.844Z,14.18
2023-03-22T05:20:59.848Z,13.98
2023-03-22T05:24:02.518Z,17.00
2023-03-22T05:27:05.892Z,16.60
2023-03-22T05:30:08.606Z,17.17
2023-03-22T05:33:41.568Z,17.13
2023-03-22T05:36:45.144Z,17.27
2023-03-22T05:40:05.343Z,17.30
2023-03-22T05:43:13.075Z,16.35
2023-03-22T05:46:19.493Z,14.97
2023-03-22T05:49:40.014Z,14.32
2023-03-22T05:52:44.733Z,12.55
2023-03-22T05:56:15.891Z,12.53
2023-03-22T05:59:20.978Z,12.73
2023-03-22T06:02:23.152Z,14.63
2023-03-22T06:05:25.563Z,11.70
2023-03-22T06:08:27.849Z,13.57
2023-03-22T06:11:33.939Z,12.15
2023-03-22T06:14:36.477Z,12.10
2023-03-22T06:18:10.729Z,12.53
2023-03-22T06:21:19.244Z,15.55
2023-03-22T06:24:21.564Z,11.50
2023-03-22T06:27:23.780Z,11.10
2023-03-22T06:30:26.303Z,10.27
2023-03-22T06:33:41.372Z,10.88
2023-03-22T06:36:55.919Z,11.48
2023-03-22T06:40:07.964Z,9.88
2023-03-22T06:43:10.334Z,10.43
2023-03-22T06:46:15.699Z,10.50
2023-03-22T06:49:28.724Z,9.53
2023-03-22T06:52:31.539Z,9.63
2023-03-22T06:55:34.713Z,9.63
2023-03-22T06:58:45.916Z,9.98
2023-03-22T07:01:48.879Z,10.90
2023-03-22T07:04:52.743Z,10.48
2023-03-22T07:07:55.302Z,9.43
2023-03-22T07:10:58.086Z,9.68
2023-03-22T07:14:00.571Z,10.17
2023-03-22T07:17:14.312Z,11.20
2023-03-22T07:20:16.547Z,9.32
2023-03-22T07:23:19.283Z,10.85
2023-03-22T07:26:30.615Z,11.43
2023-03-22T07:29:34.347Z,11.37
2023-03-22T07:32:39.799Z,11.40
2023-03-22T07:35:46.045Z,10.73
2023-03-22T07:38:48.265Z,9.98
2023-03-22T07:41:55.850Z,9.55
2023-03-22T07:45:00.864Z,10.37
2023-03-22T07:48:03.202Z,10.30
2023-03-22T07:51:28.185Z,11.10
2023-03-22T07:54:34.226Z,10.88
2023-03-22T07:57:39.131Z,10.90
2023-03-22T08:00:41.618Z,10.87
2023-03-22T08:04:02.653Z,10.80
2023-03-22T08:07:12.156Z,11.20
2023-03-22T08:10:14.672Z,11.27
2023-03-22T08:13:16.935Z,9.73
2023-03-22T08:16:19.456Z,10.20
2023-03-22T08:19:22.056Z,10.93
2023-03-22T08:22:26.002Z,9.77
2023-03-22T08:25:46.313Z,10.27
2023-03-22T08:28:48.671Z,10.77
2023-03-22T08:31:51.932Z,10.40
2023-03-22T08:34:54.194Z,10.40
2023-03-22T08:37:56.757Z,11.13
2023-03-22T08:41:04.361Z,10.10
2023-03-22T08:44:06.554Z,9.77
2023-03-22T08:47:10.184Z,9.77
2023-03-22T08:50:13.655Z,29.47
2023-03-22T08:53:23.228Z,13.18
2023-03-22T08:56:38.444Z,11.02
2023-03-22T08:59:57.955Z,10.50
2023-03-22T09:03:19.639Z,10.47
2023-03-22T09:06:21.922Z,9.30
2023-03-22T09:09:24.200Z,15.45
2023-03-22T09:12:29.905Z,9.93
2023-03-22T09:15:32.518Z,10.80
2023-03-22T09:18:51.220Z,10.47
2023-03-22T09:21:56.379Z,10.60
2023-03-22T09:25:12.175Z,10.27
2023-03-22T09:28:17.231Z,19.10
2023-03-22T09:31:20.737Z,10.30
2023-03-22T09:34:30.865Z,28.07
2023-03-22T09:37:34.447Z,19.27
2023-03-22T09:40:40.334Z,10.65
2023-03-22T09:43:44.943Z,10.68
2023-03-22T09:46:52.369Z,11.02
2023-03-22T09:50:01.446Z,10.83
2023-03-22T09:53:03.457Z,10.63
2023-03-22T09:56:08.549Z,35.17
2023-03-22T09:59:10.737Z,18.27
2023-03-22T10:02:32.210Z,34.65
2023-03-22T10:05:53.011Z,11.63
2023-03-22T10:09:11.468Z,13.87
2023-03-22T10:12:13.571Z,13.38
2023-03-22T10:15:17.599Z,10.23
2023-03-22T10:18:22.812Z,10.23
2023-03-22T10:21:26.531Z,8.70
2023-03-22T10:24:30.194Z,9.07
2023-03-22T10:27:33.661Z,8.98
2023-03-22T10:30:38.158Z,11.80
2023-03-22T10:33:50.578Z,8.85
2023-03-22T10:36:53.516Z,21.57
2023-03-22T10:39:57.049Z,8.83
2023-03-22T10:43:14.774Z,7.63
2023-03-22T10:46:19.328Z,6.43
2023-03-22T10:49:32.140Z,6.00
2023-03-22T10:52:43.108Z,5.80
2023-03-22T10:55:45.470Z,4.53
2023-03-22T10:58:48.779Z,6.22
2023-03-22T11:01:51.373Z,6.05
2023-03-22T11:04:55.517Z,6.63
2023-03-22T11:08:01.059Z,6.83
2023-03-22T11:11:07.796Z,7.27
2023-03-22T11:14:14.573Z,7.13
2023-03-22T11:17:19.341Z,6.30
2023-03-22T11:20:23.252Z,6.15
2023-03-22T11:23:25.815Z,5.70
2023-03-22T11:26:29.557Z,6.63
2023-03-22T11:29:43.434Z,7.25
2023-03-22T11:32:45.953Z,6.00
2023-03-22T11:35:53.845Z,6.28
2023-03-22T11:39:06.084Z,6.87
2023-03-22T11:42:08.347Z,6.13
2023-03-22T11:45:14.998Z,6.43
2023-03-22T11:48:22.270Z,6.68
2023-03-22T11:51:33.699Z,6.35
2023-03-22T11:54:36.536Z,7.50
2023-03-22T11:57:38.527Z,7.37
2023-03-22T12:00:41.004Z,6.55
2023-03-22T12:03:44.161Z,7.28
2023-03-22T12:06:47.693Z,7.05
2023-03-22T12:09:58.363Z,8.63
2023-03-22T12:13:04.553Z,7.37
2023-03-22T12:16:07.474Z,6.47
2023-03-22T12:19:09.625Z,5.78
2023-03-22T12:22:19.043Z,5.68
2023-03-22T12:25:23.411Z,6.67
2023-03-22T12:28:30.089Z,5.37
2023-03-22T12:31:32.248Z,6.15
2023-03-22T12:34:41.073Z,5.13
2023-03-22T12:37:43.506Z,6.10
2023-03-22T12:40:46.041Z,5.27
2023-03-22T12:43:48.063Z,5.80
2023-03-22T12:46:53.149Z,5.05
2023-03-22T12:50:07.352Z,4.22
2023-03-22T12:53:12.884Z,3.90
2023-03-22T12:56:16.801Z,4.27
2023-03-22T12:59:21.422Z,4.33
2023-03-22T13:02:31.697Z,3.58
2023-03-22T13:05:34.455Z,3.38
2023-03-22T13:08:56.723Z,3.78
2023-03-22T13:12:31.974Z,3.33
2023-03-22T13:15:41.752Z,4.03
2023-03-22T13:18:45.313Z,4.25
2023-03-22T13:21:48.702Z,4.57
2023-03-22T13:25:01.617Z,4.90
2023-03-22T13:28:03.738Z,4.93
2023-03-22T13:31:06.528Z,4.50
2023-03-22T13:34:19.049Z,4.00
2023-03-22T13:37:45.451Z,4.65
2023-03-22T13:40:47.523Z,4.20
2023-03-22T13:43:50.845Z,3.83
2023-03-22T13:46:53.634Z,4.70
2023-03-22T13:50:01.353Z,4.00
2023-03-22T13:53:12.762Z,4.40
2023-03-22T13:56:27.780Z,4.25
2023-03-22T13:59:52.324Z,5.70
2023-03-22T14:03:07.120Z,6.40
2023-03-22T14:06:11.774Z,4.00
2023-03-22T14:09:21.035Z,3.72
2023-03-22T14:12:31.380Z,2.85
2023-03-22T14:15:36.283Z,2.33
2023-03-22T14:18:41.676Z,2.63
2023-03-22T14:21:46.979Z,2.78
